sensor_id;sensor_type;location;lat;lon;timestamp;pressure;altitude;pressure_sealevel;temperature;humidity
25080;BME280;13071;48.868;9.996;2023-03-08T00:00:40;95145.41;;;3.12;63.21
25080;BME280;13071;48.868;9.996;2023-03-08T00:03:06;95143.06;;;3.02;63.12
25080;BME280;13071;48.868;9.996;2023-03-08T00:05:33;95153.16;;;2.96;63.41
25080;BME280;13071;48.868;9.996;2023-03-08T00:07:59;95161.31;;;2.91;63.78
25080;BME280;13071;48.868;9.996;2023-03-08T00:10:26;95151.75;;;2.99;63.42
25080;BME280;13071;48.868;9.996;2023-03-08T00:12:52;95152.38;;;2.96;63.53
25080;BME280;13071;48.868;9.996;2023-03-08T00:15:19;95153.75;;;3.02;63.14
25080;BME280;13071;48.868;9.996;2023-03-08T00:17:47;95158.34;;;2.93;63.67
25080;BME280;13071;48.868;9.996;2023-03-08T00:20:13;95155.22;;;2.91;63.44
25080;BME280;13071;48.868;9.996;2023-03-08T00:22:41;95153.81;;;2.85;63.57
25080;BME280;13071;48.868;9.996;2023-03-08T00:25:09;95152.53;;;2.82;64.01
25080;BME280;13071;48.868;9.996;2023-03-08T00:27:36;95153.34;;;2.74;63.81
25080;BME280;13071;48.868;9.996;2023-03-08T00:30:04;95158.03;;;2.77;64.79
25080;BME280;13071;48.868;9.996;2023-03-08T00:32:31;95168.88;;;2.72;63.99
25080;BME280;13071;48.868;9.996;2023-03-08T00:34:59;95169.84;;;2.76;64.57
25080;BME280;13071;48.868;9.996;2023-03-08T00:37:25;95163.69;;;2.84;64.63
25080;BME280;13071;48.868;9.996;2023-03-08T00:39:53;95175.50;;;2.75;64.56
25080;BME280;13071;48.868;9.996;2023-03-08T00:42:20;95170.44;;;2.82;64.75
25080;BME280;13071;48.868;9.996;2023-03-08T00:44:47;95172.50;;;2.93;64.45
25080;BME280;13071;48.868;9.996;2023-03-08T00:47:15;95170.91;;;3.01;63.58
25080;BME280;13071;48.868;9.996;2023-03-08T00:49:42;95176.25;;;2.92;64.04
25080;BME280;13071;48.868;9.996;2023-03-08T00:52:10;95173.75;;;2.96;64.30
25080;BME280;13071;48.868;9.996;2023-03-08T00:54:37;95170.13;;;3.00;63.95
25080;BME280;13071;48.868;9.996;2023-03-08T00:57:03;95166.84;;;2.95;64.02
25080;BME280;13071;48.868;9.996;2023-03-08T00:59:30;95172.94;;;3.13;63.39
25080;BME280;13071;48.868;9.996;2023-03-08T01:01:56;95171.53;;;3.07;63.33
25080;BME280;13071;48.868;9.996;2023-03-08T01:04:23;95171.38;;;3.03;64.10
25080;BME280;13071;48.868;9.996;2023-03-08T01:06:49;95167.13;;;3.02;63.93
25080;BME280;13071;48.868;9.996;2023-03-08T01:09:17;95178.00;;;3.06;63.99
25080;BME280;13071;48.868;9.996;2023-03-08T01:11:44;95163.97;;;3.09;63.89
25080;BME280;13071;48.868;9.996;2023-03-08T01:14:10;95153.09;;;3.22;63.47
25080;BME280;13071;48.868;9.996;2023-03-08T01:16:37;95154.66;;;3.23;63.60
25080;BME280;13071;48.868;9.996;2023-03-08T01:19:04;95145.72;;;3.19;63.33
25080;BME280;13071;48.868;9.996;2023-03-08T01:21:31;95144.63;;;3.20;63.73
25080;BME280;13071;48.868;9.996;2023-03-08T01:23:57;95133.94;;;3.20;64.09
25080;BME280;13071;48.868;9.996;2023-03-08T01:26:26;95128.75;;;3.15;64.04
25080;BME280;13071;48.868;9.996;2023-03-08T01:28:52;95134.59;;;3.09;64.12
25080;BME280;13071;48.868;9.996;2023-03-08T01:31:21;95122.78;;;3.10;63.92
25080;BME280;13071;48.868;9.996;2023-03-08T01:33:47;95125.69;;;2.79;64.88
25080;BME280;13071;48.868;9.996;2023-03-08T01:36:16;95124.06;;;2.86;64.90
25080;BME280;13071;48.868;9.996;2023-03-08T01:38:43;95128.03;;;2.89;64.78
25080;BME280;13071;48.868;9.996;2023-03-08T01:41:14;95117.66;;;2.79;65.42
25080;BME280;13071;48.868;9.996;2023-03-08T01:43:42;95124.72;;;2.83;64.99
25080;BME280;13071;48.868;9.996;2023-03-08T01:46:22;95116.56;;;2.63;65.53
25080;BME280;13071;48.868;9.996;2023-03-08T01:48:52;95119.72;;;2.65;65.99
25080;BME280;13071;48.868;9.996;2023-03-08T01:51:25;95115.63;;;2.67;66.40
25080;BME280;13071;48.868;9.996;2023-03-08T01:53:54;95108.28;;;2.55;66.61
25080;BME280;13071;48.868;9.996;2023-03-08T01:56:22;95114.38;;;2.47;66.36
25080;BME280;13071;48.868;9.996;2023-03-08T01:58:51;95103.69;;;2.65;66.00
25080;BME280;13071;48.868;9.996;2023-03-08T02:01:18;95106.06;;;2.66;66.70
25080;BME280;13071;48.868;9.996;2023-03-08T02:03:46;95096.28;;;2.61;66.13
25080;BME280;13071;48.868;9.996;2023-03-08T02:06:14;95099.78;;;2.71;66.31
25080;BME280;13071;48.868;9.996;2023-03-08T02:08:41;95091.13;;;2.65;66.44
25080;BME280;13071;48.868;9.996;2023-03-08T02:11:09;95086.25;;;2.58;66.52
25080;BME280;13071;48.868;9.996;2023-03-08T02:13:37;95082.78;;;2.67;66.36
25080;BME280;13071;48.868;9.996;2023-03-08T02:16:07;95077.94;;;2.60;66.66
25080;BME280;13071;48.868;9.996;2023-03-08T02:18:35;95085.81;;;2.56;66.91
25080;BME280;13071;48.868;9.996;2023-03-08T02:21:02;95083.91;;;2.48;66.63
25080;BME280;13071;48.868;9.996;2023-03-08T02:23:30;95090.19;;;2.44;67.10
25080;BME280;13071;48.868;9.996;2023-03-08T02:25:59;95088.00;;;2.46;66.96
25080;BME280;13071;48.868;9.996;2023-03-08T02:28:27;95087.53;;;2.44;67.20
25080;BME280;13071;48.868;9.996;2023-03-08T02:30:55;95088.78;;;2.38;67.16
25080;BME280;13071;48.868;9.996;2023-03-08T02:33:22;95083.59;;;2.33;67.32
25080;BME280;13071;48.868;9.996;2023-03-08T02:35:49;95092.56;;;2.37;67.41
25080;BME280;13071;48.868;9.996;2023-03-08T02:38:18;95090.34;;;2.47;67.74
25080;BME280;13071;48.868;9.996;2023-03-08T02:40:47;95077.63;;;2.44;67.56
25080;BME280;13071;48.868;9.996;2023-03-08T02:43:15;95079.81;;;2.42;67.54
25080;BME280;13071;48.868;9.996;2023-03-08T02:45:42;95075.94;;;2.31;67.94
25080;BME280;13071;48.868;9.996;2023-03-08T02:48:09;95067.25;;;2.43;67.14
25080;BME280;13071;48.868;9.996;2023-03-08T02:50:36;95061.47;;;2.32;67.38
25080;BME280;13071;48.868;9.996;2023-03-08T02:53:02;95053.00;;;2.13;67.96
25080;BME280;13071;48.868;9.996;2023-03-08T02:55:29;95055.66;;;2.04;68.08
25080;BME280;13071;48.868;9.996;2023-03-08T02:57:57;95048.44;;;2.31;68.34
25080;BME280;13071;48.868;9.996;2023-03-08T03:00:24;95039.97;;;2.11;67.99
25080;BME280;13071;48.868;9.996;2023-03-08T03:02:50;95045.28;;;2.03;68.50
25080;BME280;13071;48.868;9.996;2023-03-08T03:05:17;95053.63;;;2.01;68.67
25080;BME280;13071;48.868;9.996;2023-03-08T03:07:43;95047.03;;;2.07;68.40
25080;BME280;13071;48.868;9.996;2023-03-08T03:10:11;95053.94;;;2.26;68.55
25080;BME280;13071;48.868;9.996;2023-03-08T03:12:38;95044.34;;;2.07;68.98
25080;BME280;13071;48.868;9.996;2023-03-08T03:15:08;95035.88;;;2.05;68.86
25080;BME280;13071;48.868;9.996;2023-03-08T03:17:35;95039.34;;;2.14;68.95
25080;BME280;13071;48.868;9.996;2023-03-08T03:20:02;95036.66;;;2.14;68.95
25080;BME280;13071;48.868;9.996;2023-03-08T03:22:30;95033.69;;;2.07;69.37
25080;BME280;13071;48.868;9.996;2023-03-08T03:24:57;95034.00;;;2.14;69.00
25080;BME280;13071;48.868;9.996;2023-03-08T03:27:23;95030.22;;;2.33;68.43
25080;BME280;13071;48.868;9.996;2023-03-08T03:29:50;95030.06;;;2.29;68.66
25080;BME280;13071;48.868;9.996;2023-03-08T03:32:18;95033.69;;;2.25;69.54
25080;BME280;13071;48.868;9.996;2023-03-08T03:34:45;95030.06;;;2.29;69.38
25080;BME280;13071;48.868;9.996;2023-03-08T03:37:12;95023.00;;;2.25;69.70
25080;BME280;13071;48.868;9.996;2023-03-08T03:39:38;95026.78;;;2.24;69.02
25080;BME280;13071;48.868;9.996;2023-03-08T03:42:05;95015.94;;;2.29;69.02
25080;BME280;13071;48.868;9.996;2023-03-08T03:44:32;95017.03;;;2.28;69.39
25080;BME280;13071;48.868;9.996;2023-03-08T03:46:59;95019.25;;;2.26;69.33
25080;BME280;13071;48.868;9.996;2023-03-08T03:49:27;95015.00;;;2.25;69.67
25080;BME280;13071;48.868;9.996;2023-03-08T03:51:54;95008.88;;;2.24;68.99
25080;BME280;13071;48.868;9.996;2023-03-08T03:54:21;95011.84;;;2.23;69.04
25080;BME280;13071;48.868;9.996;2023-03-08T03:56:48;95004.19;;;2.21;69.22
25080;BME280;13071;48.868;9.996;2023-03-08T03:59:14;95012.81;;;2.27;69.42
25080;BME280;13071;48.868;9.996;2023-03-08T04:01:41;95002.91;;;2.27;69.56
25080;BME280;13071;48.868;9.996;2023-03-08T04:04:08;94999.78;;;2.25;69.75
25080;BME280;13071;48.868;9.996;2023-03-08T04:06:36;94997.41;;;2.24;70.43
25080;BME280;13071;48.868;9.996;2023-03-08T04:09:05;94992.09;;;2.15;70.75
25080;BME280;13071;48.868;9.996;2023-03-08T04:11:34;94987.69;;;2.10;70.82
25080;BME280;13071;48.868;9.996;2023-03-08T04:14:01;94985.19;;;2.05;71.25
25080;BME280;13071;48.868;9.996;2023-03-08T04:16:30;94974.84;;;1.87;71.82
25080;BME280;13071;48.868;9.996;2023-03-08T04:18:58;94977.19;;;1.88;72.21
25080;BME280;13071;48.868;9.996;2023-03-08T04:21:25;94964.16;;;1.78;71.84
25080;BME280;13071;48.868;9.996;2023-03-08T04:23:54;94967.78;;;1.82;71.96
25080;BME280;13071;48.868;9.996;2023-03-08T04:26:21;94966.84;;;1.78;71.91
25080;BME280;13071;48.868;9.996;2023-03-08T04:28:48;94954.91;;;1.76;71.83
25080;BME280;13071;48.868;9.996;2023-03-08T04:31:17;94958.84;;;1.61;72.31
25080;BME280;13071;48.868;9.996;2023-03-08T04:33:44;94945.03;;;1.59;72.32
25080;BME280;13071;48.868;9.996;2023-03-08T04:36:11;94929.97;;;1.54;72.02
25080;BME280;13071;48.868;9.996;2023-03-08T04:38:38;94937.94;;;1.28;73.27
25080;BME280;13071;48.868;9.996;2023-03-08T04:41:06;94939.22;;;1.40;72.97
25080;BME280;13071;48.868;9.996;2023-03-08T04:43:37;94935.13;;;1.34;73.02
25080;BME280;13071;48.868;9.996;2023-03-08T04:46:05;94944.63;;;1.00;74.25
25080;BME280;13071;48.868;9.996;2023-03-08T04:48:32;94935.41;;;0.98;75.13
25080;BME280;13071;48.868;9.996;2023-03-08T04:51:02;94931.94;;;0.89;75.38
25080;BME280;13071;48.868;9.996;2023-03-08T04:53:30;94934.81;;;1.26;74.23
25080;BME280;13071;48.868;9.996;2023-03-08T04:55:57;94938.13;;;1.41;73.66
25080;BME280;13071;48.868;9.996;2023-03-08T04:58:26;94930.91;;;1.41;73.92
25080;BME280;13071;48.868;9.996;2023-03-08T05:00:53;94928.56;;;1.31;74.20
25080;BME280;13071;48.868;9.996;2023-03-08T05:03:20;94934.19;;;1.29;74.65
25080;BME280;13071;48.868;9.996;2023-03-08T05:05:48;94924.00;;;1.32;74.80
25080;BME280;13071;48.868;9.996;2023-03-08T05:08:15;94918.38;;;1.33;74.54
25080;BME280;13071;48.868;9.996;2023-03-08T05:10:46;94920.56;;;1.40;74.91
25080;BME280;13071;48.868;9.996;2023-03-08T05:13:12;94918.38;;;1.42;74.89
25080;BME280;13071;48.868;9.996;2023-03-08T05:15:40;94922.91;;;1.33;74.48
25080;BME280;13071;48.868;9.996;2023-03-08T05:18:07;94912.88;;;1.47;74.32
25080;BME280;13071;48.868;9.996;2023-03-08T05:20:33;94911.78;;;1.73;73.20
25080;BME280;13071;48.868;9.996;2023-03-08T05:23:00;94905.16;;;1.88;72.16
25080;BME280;13071;48.868;9.996;2023-03-08T05:25:26;94905.50;;;1.78;72.26
25080;BME280;13071;48.868;9.996;2023-03-08T05:27:55;94891.72;;;1.67;72.78
25080;BME280;13071;48.868;9.996;2023-03-08T05:30:21;94883.53;;;1.64;73.10
25080;BME280;13071;48.868;9.996;2023-03-08T05:32:50;94894.53;;;1.62;73.70
25080;BME280;13071;48.868;9.996;2023-03-08T05:35:16;94894.69;;;1.66;74.37
25080;BME280;13071;48.868;9.996;2023-03-08T05:37:43;94890.63;;;1.60;73.99
25080;BME280;13071;48.868;9.996;2023-03-08T05:40:10;94892.81;;;1.66;74.34
25080;BME280;13071;48.868;9.996;2023-03-08T05:42:37;94887.94;;;1.68;74.76
25080;BME280;13071;48.868;9.996;2023-03-08T05:45:04;94882.28;;;1.70;74.52
25080;BME280;13071;48.868;9.996;2023-03-08T05:47:31;94888.88;;;1.72;74.19
25080;BME280;13071;48.868;9.996;2023-03-08T05:50:00;94875.69;;;1.76;73.75
25080;BME280;13071;48.868;9.996;2023-03-08T05:52:28;94872.38;;;1.79;73.85
25080;BME280;13071;48.868;9.996;2023-03-08T05:54:55;94879.63;;;1.87;74.22
25080;BME280;13071;48.868;9.996;2023-03-08T05:57:21;94870.81;;;1.87;74.38
25080;BME280;13071;48.868;9.996;2023-03-08T05:59:48;94875.19;;;1.83;74.55
25080;BME280;13071;48.868;9.996;2023-03-08T06:02:14;94875.66;;;1.93;74.31
25080;BME280;13071;48.868;9.996;2023-03-08T06:04:41;94873.47;;;1.95;73.88
25080;BME280;13071;48.868;9.996;2023-03-08T06:07:09;94882.41;;;1.99;74.41
25080;BME280;13071;48.868;9.996;2023-03-08T06:09:35;94881.47;;;1.95;74.71
25080;BME280;13071;48.868;9.996;2023-03-08T06:12:02;94884.63;;;1.97;74.52
25080;BME280;13071;48.868;9.996;2023-03-08T06:14:29;94885.38;;;2.06;74.33
25080;BME280;13071;48.868;9.996;2023-03-08T06:16:55;94894.94;;;2.16;74.46
25080;BME280;13071;48.868;9.996;2023-03-08T06:19:22;94890.03;;;2.18;74.30
25080;BME280;13071;48.868;9.996;2023-03-08T06:21:48;94894.28;;;2.19;74.33
25080;BME280;13071;48.868;9.996;2023-03-08T06:24:16;94892.22;;;2.25;74.12
25080;BME280;13071;48.868;9.996;2023-03-08T06:26:43;94887.97;;;2.24;74.65
25080;BME280;13071;48.868;9.996;2023-03-08T06:29:09;94889.06;;;2.31;74.25
25080;BME280;13071;48.868;9.996;2023-03-08T06:31:36;94889.72;;;2.20;75.14
25080;BME280;13071;48.868;9.996;2023-03-08T06:34:02;94884.19;;;2.33;74.48
25080;BME280;13071;48.868;9.996;2023-03-08T06:36:29;94883.09;;;2.34;74.70
25080;BME280;13071;48.868;9.996;2023-03-08T06:38:55;94889.69;;;2.28;75.09
25080;BME280;13071;48.868;9.996;2023-03-08T06:41:25;94886.56;;;2.26;75.62
25080;BME280;13071;48.868;9.996;2023-03-08T06:43:53;94881.47;;;2.42;76.30
25080;BME280;13071;48.868;9.996;2023-03-08T06:46:20;94866.50;;;2.58;76.10
25080;BME280;13071;48.868;9.996;2023-03-08T06:48:47;94864.94;;;2.10;79.49
25080;BME280;13071;48.868;9.996;2023-03-08T06:51:14;94871.06;;;2.11;81.00
25080;BME280;13071;48.868;9.996;2023-03-08T06:53:41;94870.16;;;2.07;82.87
25080;BME280;13071;48.868;9.996;2023-03-08T06:56:08;94866.53;;;2.11;83.58
25080;BME280;13071;48.868;9.996;2023-03-08T06:58:38;94871.03;;;2.20;84.38
25080;BME280;13071;48.868;9.996;2023-03-08T07:01:05;94855.66;;;2.25;84.86
25080;BME280;13071;48.868;9.996;2023-03-08T07:03:34;94860.53;;;2.14;84.98
25080;BME280;13071;48.868;9.996;2023-03-08T07:06:03;94835.44;;;2.15;85.60
25080;BME280;13071;48.868;9.996;2023-03-08T07:08:30;94838.34;;;2.31;85.30
25080;BME280;13071;48.868;9.996;2023-03-08T07:10:57;94841.47;;;2.33;85.51
25080;BME280;13071;48.868;9.996;2023-03-08T07:13:24;94830.69;;;2.21;86.77
25080;BME280;13071;48.868;9.996;2023-03-08T07:15:52;94818.53;;;2.32;87.03
25080;BME280;13071;48.868;9.996;2023-03-08T07:18:19;94817.31;;;2.30;87.17
25080;BME280;13071;48.868;9.996;2023-03-08T07:20:50;94826.53;;;2.41;86.18
25080;BME280;13071;48.868;9.996;2023-03-08T07:23:17;94825.09;;;2.43;86.00
25080;BME280;13071;48.868;9.996;2023-03-08T07:25:43;94804.53;;;2.44;86.03
25080;BME280;13071;48.868;9.996;2023-03-08T07:28:10;94816.81;;;2.36;87.55
25080;BME280;13071;48.868;9.996;2023-03-08T07:30:36;94809.38;;;2.42;88.38
25080;BME280;13071;48.868;9.996;2023-03-08T07:33:04;94802.63;;;2.44;88.68
25080;BME280;13071;48.868;9.996;2023-03-08T07:35:31;94791.16;;;2.73;88.03
25080;BME280;13071;48.868;9.996;2023-03-08T07:37:57;94789.59;;;2.43;90.47
25080;BME280;13071;48.868;9.996;2023-03-08T07:40:24;94791.78;;;2.49;90.53
25080;BME280;13071;48.868;9.996;2023-03-08T07:42:51;94788.88;;;2.34;90.99
25080;BME280;13071;48.868;9.996;2023-03-08T07:45:17;94802.81;;;2.69;91.08
25080;BME280;13071;48.868;9.996;2023-03-08T07:47:44;94820.06;;;2.42;92.50
25080;BME280;13071;48.868;9.996;2023-03-08T07:50:12;94807.63;;;2.54;92.55
25080;BME280;13071;48.868;9.996;2023-03-08T07:52:38;94801.63;;;2.28;92.52
25080;BME280;13071;48.868;9.996;2023-03-08T07:55:06;94801.78;;;2.61;92.41
25080;BME280;13071;48.868;9.996;2023-03-08T07:57:33;94797.41;;;2.56;91.57
25080;BME280;13071;48.868;9.996;2023-03-08T07:59:59;94790.44;;;2.35;93.20
25080;BME280;13071;48.868;9.996;2023-03-08T08:02:26;94785.38;;;2.42;92.89
25080;BME280;13071;48.868;9.996;2023-03-08T08:04:52;94787.66;;;2.52;92.74
25080;BME280;13071;48.868;9.996;2023-03-08T08:07:20;94772.50;;;2.44;92.95
25080;BME280;13071;48.868;9.996;2023-03-08T08:09:47;94770.59;;;2.15;96.03
25080;BME280;13071;48.868;9.996;2023-03-08T08:12:13;94758.13;;;2.28;96.16
25080;BME280;13071;48.868;9.996;2023-03-08T08:14:40;94753.47;;;2.45;95.29
25080;BME280;13071;48.868;9.996;2023-03-08T08:17:06;94749.34;;;2.56;94.27
25080;BME280;13071;48.868;9.996;2023-03-08T08:19:33;94739.88;;;2.59;93.67
25080;BME280;13071;48.868;9.996;2023-03-08T08:22:00;94745.34;;;2.63;94.11
25080;BME280;13071;48.868;9.996;2023-03-08T08:24:28;94745.78;;;2.44;95.13
25080;BME280;13071;48.868;9.996;2023-03-08T08:26:55;94730.25;;;2.46;95.35
25080;BME280;13071;48.868;9.996;2023-03-08T08:29:22;94732.34;;;2.61;94.55
25080;BME280;13071;48.868;9.996;2023-03-08T08:31:48;94720.91;;;2.31;96.59
25080;BME280;13071;48.868;9.996;2023-03-08T08:34:17;94723.22;;;2.41;96.62
25080;BME280;13071;48.868;9.996;2023-03-08T08:36:43;94721.09;;;2.26;96.06
25080;BME280;13071;48.868;9.996;2023-03-08T08:39:10;94708.66;;;2.30;97.14
25080;BME280;13071;48.868;9.996;2023-03-08T08:41:38;94706.06;;;2.42;97.34
25080;BME280;13071;48.868;9.996;2023-03-08T08:44:05;94687.13;;;2.35;96.09
25080;BME280;13071;48.868;9.996;2023-03-08T08:46:31;94681.13;;;2.38;96.74
25080;BME280;13071;48.868;9.996;2023-03-08T08:49:00;94680.03;;;2.39;95.89
25080;BME280;13071;48.868;9.996;2023-03-08T08:51:27;94672.72;;;2.48;96.59
25080;BME280;13071;48.868;9.996;2023-03-08T08:53:54;94662.53;;;2.50;97.23
25080;BME280;13071;48.868;9.996;2023-03-08T08:56:23;94665.38;;;2.45;98.37
25080;BME280;13071;48.868;9.996;2023-03-08T08:58:51;94662.84;;;2.70;97.08
25080;BME280;13071;48.868;9.996;2023-03-08T09:01:19;94658.88;;;2.55;98.51
25080;BME280;13071;48.868;9.996;2023-03-08T09:03:47;94648.78;;;2.40;98.56
25080;BME280;13071;48.868;9.996;2023-03-08T09:06:14;94633.94;;;2.30;99.76
25080;BME280;13071;48.868;9.996;2023-03-08T09:08:41;94627.09;;;2.21;100.00
25080;BME280;13071;48.868;9.996;2023-03-08T09:11:09;94614.78;;;2.49;100.00
25080;BME280;13071;48.868;9.996;2023-03-08T09:13:36;94601.44;;;2.49;99.10
25080;BME280;13071;48.868;9.996;2023-03-08T09:16:16;94598.56;;;2.54;99.22
25080;BME280;13071;48.868;9.996;2023-03-08T09:18:42;94588.00;;;2.57;99.84
25080;BME280;13071;48.868;9.996;2023-03-08T09:21:10;94603.47;;;2.85;100.00
25080;BME280;13071;48.868;9.996;2023-03-08T09:23:36;94592.47;;;2.98;100.00
25080;BME280;13071;48.868;9.996;2023-03-08T09:26:03;94584.66;;;2.93;100.00
25080;BME280;13071;48.868;9.996;2023-03-08T09:28:30;94583.44;;;2.91;100.00
25080;BME280;13071;48.868;9.996;2023-03-08T09:30:57;94575.47;;;3.27;100.00
25080;BME280;13071;48.868;9.996;2023-03-08T09:33:25;94577.00;;;3.16;100.00
25080;BME280;13071;48.868;9.996;2023-03-08T09:35:55;94579.38;;;3.18;100.00
25080;BME280;13071;48.868;9.996;2023-03-08T09:38:22;94574.25;;;3.61;100.00
25080;BME280;13071;48.868;9.996;2023-03-08T09:40:57;94556.31;;;3.62;99.61
25080;BME280;13071;48.868;9.996;2023-03-08T09:43:27;94571.47;;;3.58;98.95
25080;BME280;13071;48.868;9.996;2023-03-08T09:45:58;94557.09;;;3.74;99.23
25080;BME280;13071;48.868;9.996;2023-03-08T09:48:28;94551.72;;;3.86;96.89
25080;BME280;13071;48.868;9.996;2023-03-08T09:50:57;94554.72;;;4.09;95.22
25080;BME280;13071;48.868;9.996;2023-03-08T09:53:28;94553.09;;;4.20;93.79
25080;BME280;13071;48.868;9.996;2023-03-08T09:56:03;94542.44;;;4.08;94.86
25080;BME280;13071;48.868;9.996;2023-03-08T09:58:35;94540.47;;;3.93;94.90
25080;BME280;13071;48.868;9.996;2023-03-08T10:01:15;94540.41;;;4.17;94.73
25080;BME280;13071;48.868;9.996;2023-03-08T10:06:51;94527.47;;;4.47;90.21
25080;BME280;13071;48.868;9.996;2023-03-08T10:09:27;94544.19;;;4.44;89.70
25080;BME280;13071;48.868;9.996;2023-03-08T10:12:00;94514.84;;;4.20;91.91
25080;BME280;13071;48.868;9.996;2023-03-08T10:14:30;94546.25;;;4.35;90.08
25080;BME280;13071;48.868;9.996;2023-03-08T10:17:02;94527.41;;;4.31;90.71
25080;BME280;13071;48.868;9.996;2023-03-08T10:19:36;94518.50;;;4.27;91.57
25080;BME280;13071;48.868;9.996;2023-03-08T10:22:08;94521.84;;;4.52;90.68
25080;BME280;13071;48.868;9.996;2023-03-08T10:24:44;94514.19;;;4.66;89.56
25080;BME280;13071;48.868;9.996;2023-03-08T10:27:16;94521.84;;;4.24;90.98
25080;BME280;13071;48.868;9.996;2023-03-08T10:29:48;94507.47;;;4.29;91.58
25080;BME280;13071;48.868;9.996;2023-03-08T10:32:15;94504.72;;;4.41;91.80
25080;BME280;13071;48.868;9.996;2023-03-08T10:34:43;94501.94;;;4.38;91.51
25080;BME280;13071;48.868;9.996;2023-03-08T10:37:10;94502.47;;;4.43;92.09
25080;BME280;13071;48.868;9.996;2023-03-08T10:39:47;94500.81;;;4.66;89.92
25080;BME280;13071;48.868;9.996;2023-03-08T10:42:18;94489.38;;;4.69;90.39
25080;BME280;13071;48.868;9.996;2023-03-08T10:44:52;94496.13;;;4.79;91.53
25080;BME280;13071;48.868;9.996;2023-03-08T10:47:23;94489.34;;;4.97;90.83
25080;BME280;13071;48.868;9.996;2023-03-08T10:50:05;94488.56;;;4.97;91.19
25080;BME280;13071;48.868;9.996;2023-03-08T10:52:31;94488.19;;;4.98;91.14
25080;BME280;13071;48.868;9.996;2023-03-08T10:55:03;94469.59;;;4.90;90.92
25080;BME280;13071;48.868;9.996;2023-03-08T10:57:31;94478.00;;;5.04;91.42
25080;BME280;13071;48.868;9.996;2023-03-08T11:00:03;94480.69;;;5.04;92.65
25080;BME280;13071;48.868;9.996;2023-03-08T11:02:36;94485.09;;;5.12;92.70
25080;BME280;13071;48.868;9.996;2023-03-08T11:05:16;94476.81;;;5.17;93.63
25080;BME280;13071;48.868;9.996;2023-03-08T11:07:49;94477.81;;;5.28;93.90
25080;BME280;13071;48.868;9.996;2023-03-08T11:10:18;94477.19;;;5.85;91.17
25080;BME280;13071;48.868;9.996;2023-03-08T11:12:45;94465.84;;;5.92;92.85
25080;BME280;13071;48.868;9.996;2023-03-08T11:15:12;94463.38;;;6.02;92.76
25080;BME280;13071;48.868;9.996;2023-03-08T11:17:44;94457.25;;;6.21;91.89
25080;BME280;13071;48.868;9.996;2023-03-08T11:20:17;94469.59;;;6.26;92.57
25080;BME280;13071;48.868;9.996;2023-03-08T11:22:52;94461.94;;;6.47;91.89
25080;BME280;13071;48.868;9.996;2023-03-08T11:25:32;94459.09;;;6.59;90.20
25080;BME280;13071;48.868;9.996;2023-03-08T11:28:12;94432.78;;;6.26;93.38
25080;BME280;13071;48.868;9.996;2023-03-08T11:30:50;94449.56;;;6.42;93.89
25080;BME280;13071;48.868;9.996;2023-03-08T11:33:43;94444.06;;;6.55;91.70
25080;BME280;13071;48.868;9.996;2023-03-08T11:36:20;94439.84;;;6.57;89.75
25080;BME280;13071;48.868;9.996;2023-03-08T11:38:55;94436.47;;;6.83;89.33
25080;BME280;13071;48.868;9.996;2023-03-08T11:41:28;94421.00;;;6.99;88.98
25080;BME280;13071;48.868;9.996;2023-03-08T11:44:11;94437.13;;;6.99;89.04
25080;BME280;13071;48.868;9.996;2023-03-08T11:46:52;94436.59;;;7.13;88.21
25080;BME280;13071;48.868;9.996;2023-03-08T11:49:36;94415.16;;;7.46;86.39
25080;BME280;13071;48.868;9.996;2023-03-08T11:52:14;94417.66;;;7.58;86.61
25080;BME280;13071;48.868;9.996;2023-03-08T11:54:52;94411.72;;;7.75;85.32
25080;BME280;13071;48.868;9.996;2023-03-08T11:57:23;94416.91;;;7.88;85.98
25080;BME280;13071;48.868;9.996;2023-03-08T11:59:53;94406.16;;;7.91;85.54
25080;BME280;13071;48.868;9.996;2023-03-08T12:02:23;94415.47;;;7.97;84.95
25080;BME280;13071;48.868;9.996;2023-03-08T12:04:57;94410.25;;;8.11;85.43
25080;BME280;13071;48.868;9.996;2023-03-08T12:07:30;94423.38;;;8.13;86.13
25080;BME280;13071;48.868;9.996;2023-03-08T12:10:02;94411.56;;;8.24;85.28
25080;BME280;13071;48.868;9.996;2023-03-08T12:12:34;94404.16;;;8.48;85.81
25080;BME280;13071;48.868;9.996;2023-03-08T12:15:11;94403.41;;;8.51;85.80
25080;BME280;13071;48.868;9.996;2023-03-08T12:17:41;94400.69;;;8.47;85.54
25080;BME280;13071;48.868;9.996;2023-03-08T12:20:12;94406.19;;;8.58;85.35
25080;BME280;13071;48.868;9.996;2023-03-08T12:22:44;94401.97;;;8.64;85.35
25080;BME280;13071;48.868;9.996;2023-03-08T12:25:20;94397.09;;;8.73;85.67
25080;BME280;13071;48.868;9.996;2023-03-08T12:27:51;94393.22;;;8.74;85.98
25080;BME280;13071;48.868;9.996;2023-03-08T12:30:26;94390.53;;;8.74;85.69
25080;BME280;13071;48.868;9.996;2023-03-08T12:33:01;94396.44;;;8.87;85.53
25080;BME280;13071;48.868;9.996;2023-03-08T12:35:30;94405.22;;;8.80;85.78
25080;BME280;13071;48.868;9.996;2023-03-08T12:38:00;94395.75;;;9.00;85.08
25080;BME280;13071;48.868;9.996;2023-03-08T12:40:36;94397.66;;;8.96;85.99
25080;BME280;13071;48.868;9.996;2023-03-08T12:43:08;94417.38;;;9.04;86.12
25080;BME280;13071;48.868;9.996;2023-03-08T12:45:36;94415.88;;;9.10;85.92
25080;BME280;13071;48.868;9.996;2023-03-08T12:48:24;94409.38;;;9.15;85.48
25080;BME280;13071;48.868;9.996;2023-03-08T12:51:02;94416.78;;;9.28;84.76
25080;BME280;13071;48.868;9.996;2023-03-08T12:53:37;94410.59;;;9.24;84.93
25080;BME280;13071;48.868;9.996;2023-03-08T12:56:13;94406.78;;;9.29;84.41
25080;BME280;13071;48.868;9.996;2023-03-08T12:58:47;94409.19;;;9.44;83.83
25080;BME280;13071;48.868;9.996;2023-03-08T13:01:27;94408.03;;;9.42;83.89
25080;BME280;13071;48.868;9.996;2023-03-08T13:03:55;94408.47;;;9.51;83.79
25080;BME280;13071;48.868;9.996;2023-03-08T13:09:25;94417.38;;;9.55;83.38
25080;BME280;13071;48.868;9.996;2023-03-08T13:11:59;94410.06;;;9.59;83.99
25080;BME280;13071;48.868;9.996;2023-03-08T13:14:37;94419.00;;;9.67;83.47
25080;BME280;13071;48.868;9.996;2023-03-08T13:17:32;94416.25;;;9.60;83.81
25080;BME280;13071;48.868;9.996;2023-03-08T13:20:02;94410.91;;;9.70;83.12
25080;BME280;13071;48.868;9.996;2023-03-08T13:22:37;94404.31;;;9.64;83.43
25080;BME280;13071;48.868;9.996;2023-03-08T13:25:17;94414.03;;;9.76;82.99